createdAt,value
2023-04-03T00:01:42.077Z,59.91
2023-04-03T00:04:11.802Z,60.04
2023-04-03T00:06:41.214Z,59.98
2023-04-03T00:09:10.758Z,60.01
2023-04-03T00:11:40.412Z,60.37
2023-04-03T00:14:09.936Z,60.76
2023-04-03T00:16:39.107Z,60.67
2023-04-03T00:19:08.664Z,60.77
2023-04-03T00:21:37.866Z,60.79
2023-04-03T00:24:07.845Z,61.19
2023-04-03T00:26:37.229Z,61.30
2023-04-03T00:29:06.495Z,61.06
2023-04-03T00:31:36.027Z,61.11
2023-04-03T00:34:05.521Z,61.26
2023-04-03T00:36:34.963Z,61.46
2023-04-03T00:39:04.560Z,61.44
2023-04-03T00:41:34.335Z,61.58
2023-04-03T00:44:24.722Z,61.39
2023-04-03T00:46:53.892Z,61.86
2023-04-03T00:49:22.993Z,61.96
2023-04-03T00:51:53.181Z,61.63
2023-04-03T00:54:22.240Z,61.69
2023-04-03T00:56:54.220Z,61.42
2023-04-03T00:59:28.375Z,61.57
2023-04-03T01:01:58.564Z,61.46
2023-04-03T01:04:33.909Z,61.21
2023-04-03T01:07:08.470Z,61.10
2023-04-03T01:09:39.177Z,61.25
2023-04-03T01:12:28.102Z,61.30
2023-04-03T01:15:00.984Z,61.23
2023-04-03T01:17:55.464Z,61.10
2023-04-03T01:20:37.904Z,61.15
2023-04-03T01:23:10.634Z,61.30
2023-04-03T01:25:46.366Z,61.21
2023-04-03T01:28:21.885Z,61.01
2023-04-03T01:31:10.257Z,60.99
2023-04-03T01:33:40.109Z,61.01
2023-04-03T01:36:11.022Z,61.17
2023-04-03T01:38:40.418Z,61.13
2023-04-03T01:41:09.476Z,61.13
2023-04-03T01:43:38.993Z,61.13
2023-04-03T01:46:09.609Z,61.39
2023-04-03T01:48:38.995Z,61.59
2023-04-03T01:51:08.268Z,61.35
2023-04-03T01:53:38.258Z,61.13
2023-04-03T01:56:07.969Z,60.69
2023-04-03T01:58:37.425Z,60.89
2023-04-03T02:01:07.217Z,61.49
2023-04-03T02:03:36.336Z,61.64
2023-04-03T02:06:05.754Z,61.73
2023-04-03T02:08:34.998Z,62.08
2023-04-03T02:11:03.997Z,62.56
2023-04-03T02:13:33.398Z,62.83
2023-04-03T02:16:09.165Z,62.91
2023-04-03T02:18:38.947Z,63.04
2023-04-03T02:21:08.247Z,63.28
2023-04-03T02:23:38.729Z,63.55
2023-04-03T02:26:13.249Z,63.24
2023-04-03T02:28:45.162Z,63.23
2023-04-03T02:31:15.440Z,63.20
2023-04-03T02:33:44.546Z,63.49
2023-04-03T02:36:13.478Z,63.45
2023-04-03T02:38:42.345Z,63.46
2023-04-03T02:41:13.595Z,63.39
2023-04-03T02:43:43.806Z,63.69
2023-04-03T02:46:13.266Z,63.78
2023-04-03T02:48:42.632Z,63.57
2023-04-03T02:51:11.523Z,63.23
2023-04-03T02:53:40.751Z,63.33
2023-04-03T02:56:10.350Z,63.47
2023-04-03T02:58:39.950Z,63.64
2023-04-03T03:01:09.395Z,63.35
2023-04-03T03:03:39.524Z,63.39
2023-04-03T03:06:13.794Z,63.72
2023-04-03T03:08:43.193Z,63.64
2023-04-03T03:11:13.230Z,63.60
2023-04-03T03:13:43.023Z,63.51
2023-04-03T03:16:12.301Z,63.44
2023-04-03T03:18:41.808Z,63.67
2023-04-03T03:21:12.293Z,63.74
2023-04-03T03:23:42.327Z,63.27
2023-04-03T03:26:13.671Z,63.23
2023-04-03T03:28:42.847Z,63.34
2023-04-03T03:31:12.451Z,63.57
2023-04-03T03:33:41.521Z,63.67
2023-04-03T03:36:10.672Z,63.44
2023-04-03T03:38:39.760Z,63.33
2023-04-03T03:41:08.483Z,63.23
2023-04-03T03:43:37.466Z,63.51
2023-04-03T03:46:06.923Z,63.20
2023-04-03T03:48:36.191Z,62.62
2023-04-03T03:51:05.584Z,62.37
2023-04-03T03:53:34.925Z,62.55
2023-04-03T03:56:04.279Z,62.92
2023-04-03T03:58:34.192Z,62.78
2023-04-03T04:01:07.597Z,62.50
2023-04-03T04:03:37.506Z,62.63
2023-04-03T04:06:07.229Z,62.63
2023-04-03T04:08:36.402Z,62.69
2023-04-03T04:11:05.628Z,62.64
2023-04-03T04:13:35.138Z,62.49
2023-04-03T04:16:04.238Z,62.19
2023-04-03T04:18:33.427Z,62.40
2023-04-03T04:21:02.587Z,62.42
2023-04-03T04:23:31.873Z,62.36
2023-04-03T04:26:01.141Z,62.40
2023-04-03T04:28:30.921Z,62.57
2023-04-03T04:31:00.016Z,62.95
2023-04-03T04:33:29.175Z,63.01
2023-04-03T04:35:58.234Z,62.68
2023-04-03T04:38:27.684Z,62.46
2023-04-03T04:40:57.031Z,62.54
2023-04-03T04:43:26.299Z,62.87
2023-04-03T04:46:08.109Z,62.76
2023-04-03T04:48:37.824Z,62.59
2023-04-03T04:51:07.036Z,62.44
2023-04-03T04:53:36.338Z,62.68
2023-04-03T04:56:06.291Z,63.19
2023-04-03T04:58:35.902Z,63.54
2023-04-03T05:01:10.833Z,63.44
2023-04-03T05:03:40.298Z,63.58
2023-04-03T05:06:10.175Z,64.09
2023-04-03T05:08:40.118Z,64.41
2023-04-03T05:11:08.738Z,64.35
2023-04-03T05:13:37.737Z,64.16
2023-04-03T05:16:07.030Z,64.32
2023-04-03T05:18:36.797Z,64.43
2023-04-03T05:21:06.347Z,64.36
2023-04-03T05:23:35.138Z,64.22
2023-04-03T05:26:04.909Z,64.21
2023-04-03T05:28:34.209Z,64.21
2023-04-03T05:31:03.294Z,64.25
2023-04-03T05:33:32.721Z,63.88
2023-04-03T05:36:06.164Z,63.61
2023-04-03T05:38:35.521Z,63.56
2023-04-03T05:41:04.558Z,63.64
2023-04-03T05:43:34.379Z,63.40
2023-04-03T05:46:03.459Z,62.99
2023-04-03T05:48:33.003Z,62.91
2023-04-03T05:51:01.870Z,62.88
2023-04-03T05:53:34.989Z,62.97
2023-04-03T05:56:04.594Z,62.55
2023-04-03T05:58:33.846Z,62.27
2023-04-03T06:01:03.085Z,61.96
2023-04-03T06:03:32.335Z,61.80
2023-04-03T06:06:05.124Z,61.87
2023-04-03T06:08:35.136Z,61.28
2023-04-03T06:11:04.231Z,59.80
2023-04-03T06:13:33.678Z,58.04
2023-04-03T06:16:03.852Z,55.56
2023-04-03T06:18:33.394Z,53.74
2023-04-03T06:21:04.496Z,52.33
2023-04-03T06:23:34.093Z,50.63
2023-04-03T06:26:04.472Z,49.64
2023-04-03T06:28:33.426Z,48.67
2023-04-03T06:31:02.775Z,47.92
2023-04-03T06:33:32.252Z,46.58
2023-04-03T06:36:02.001Z,45.91
2023-04-03T06:38:31.238Z,44.70
2023-04-03T06:41:02.048Z,43.89
2023-04-03T06:43:35.026Z,42.75
2023-04-03T06:46:04.605Z,40.79
2023-04-03T06:48:33.808Z,40.76
2023-04-03T06:51:03.117Z,40.34
2023-04-03T06:53:32.577Z,39.46
2023-04-03T06:56:01.145Z,38.44
2023-04-03T06:58:30.908Z,38.35
2023-04-03T07:01:00.045Z,37.64
2023-04-03T07:03:29.228Z,36.81
2023-04-03T07:05:58.336Z,35.79
2023-04-03T07:08:27.681Z,35.47
2023-04-03T07:10:56.927Z,35.02
2023-04-03T07:13:25.765Z,34.60
2023-04-03T07:15:54.909Z,34.40
2023-04-03T07:18:24.577Z,34.29
2023-04-03T07:20:53.483Z,34.05
2023-04-03T07:23:23.507Z,33.87
2023-04-03T07:25:54.034Z,33.25
2023-04-03T07:28:27.365Z,33.28
2023-04-03T07:31:08.710Z,33.12
2023-04-03T07:33:38.388Z,33.50
2023-04-03T07:36:11.578Z,33.47
2023-04-03T07:38:41.081Z,33.04
2023-04-03T07:41:16.797Z,32.75
2023-04-03T07:43:46.534Z,32.13
2023-04-03T07:46:15.791Z,30.89
2023-04-03T07:48:44.701Z,30.73
2023-04-03T07:51:14.485Z,30.34
2023-04-03T07:53:43.545Z,29.98
2023-04-03T07:56:12.083Z,30.14
2023-04-03T07:58:41.203Z,29.88
2023-04-03T08:01:11.037Z,30.37
2023-04-03T08:03:41.084Z,29.93
2023-04-03T08:06:15.718Z,30.47
2023-04-03T08:08:45.735Z,30.41
2023-04-03T08:11:14.782Z,30.18
2023-04-03T08:13:44.897Z,30.53
2023-04-03T08:16:18.842Z,31.07
2023-04-03T08:18:48.268Z,30.17
2023-04-03T08:21:18.661Z,30.09
2023-04-03T08:23:51.997Z,29.42
2023-04-03T08:26:22.780Z,28.51
2023-04-03T08:28:51.875Z,27.11
2023-04-03T08:31:21.543Z,27.45
2023-04-03T08:33:50.811Z,28.99
2023-04-03T08:36:26.479Z,29.09
2023-04-03T08:38:57.815Z,28.63
2023-04-03T08:41:35.148Z,29.36
2023-04-03T08:44:16.405Z,28.56
2023-04-03T08:46:54.672Z,27.60
2023-04-03T08:49:34.864Z,26.49
2023-04-03T08:52:13.967Z,26.85
2023-04-03T08:55:07.564Z,28.06
2023-04-03T08:57:44.533Z,28.54
2023-04-03T09:00:22.464Z,29.03
2023-04-03T09:02:54.538Z,29.75
2023-04-03T09:06:01.551Z,29.52
2023-04-03T09:08:34.695Z,28.32
2023-04-03T09:11:25.532Z,26.77
2023-04-03T09:13:54.954Z,26.39
2023-04-03T09:16:29.905Z,24.52
2023-04-03T09:19:14.456Z,24.93
2023-04-03T09:21:44.460Z,25.01
2023-04-03T09:24:17.413Z,24.80
2023-04-03T09:27:01.662Z,24.74
2023-04-03T09:29:33.951Z,24.93
2023-04-03T09:32:18.036Z,23.92
2023-04-03T09:34:49.044Z,22.81
2023-04-03T09:37:41.136Z,22.99
2023-04-03T09:40:37.555Z,23.75
2023-04-03T09:43:20.710Z,24.27
2023-04-03T09:45:53.403Z,25.48
2023-04-03T09:48:29.853Z,24.45
2023-04-03T09:51:01.594Z,22.67
2023-04-03T09:53:39.480Z,21.75
2023-04-03T09:56:17.543Z,21.43
2023-04-03T09:58:52.121Z,20.38
2023-04-03T10:01:33.342Z,18.94
2023-04-03T10:04:09.215Z,18.06
2023-04-03T10:06:44.857Z,17.62
2023-04-03T10:09:29.664Z,17.85
2023-04-03T10:12:12.102Z,17.98
2023-04-03T10:14:58.711Z,18.40
2023-04-03T10:17:43.435Z,17.90
2023-04-03T10:20:24.964Z,17.84
2023-04-03T10:22:57.649Z,17.84
2023-04-03T10:25:41.711Z,16.88
2023-04-03T10:28:51.406Z,15.90
2023-04-03T10:31:50.972Z,16.09
2023-04-03T10:34:49.079Z,16.48
2023-04-03T10:38:02.754Z,16.27
2023-04-03T10:40:42.850Z,16.13
2023-04-03T10:43:37.233Z,15.70
2023-04-03T10:46:18.526Z,15.89
2023-04-03T10:49:06.381Z,16.14
2023-04-03T10:51:46.929Z,16.10
2023-04-03T10:54:35.169Z,15.77
2023-04-03T10:57:13.155Z,15.76
2023-04-03T10:59:55.495Z,15.93
2023-04-03T11:02:30.794Z,15.44
2023-04-03T11:05:11.861Z,15.73
2023-04-03T11:07:44.829Z,15.74
2023-04-03T11:10:19.084Z,15.50
2023-04-03T11:12:57.880Z,15.16
2023-04-03T11:15:29.277Z,14.18
2023-04-03T11:18:13.243Z,13.46
2023-04-03T11:20:49.616Z,13.54
2023-04-03T11:23:45.996Z,13.52
2023-04-03T11:26:30.023Z,13.42
2023-04-03T11:29:09.024Z,13.47
2023-04-03T11:32:15.443Z,13.23
2023-04-03T11:34:52.308Z,13.45
2023-04-03T11:37:57.144Z,13.31
2023-04-03T11:40:34.231Z,12.89
2023-04-03T11:43:22.470Z,12.89
2023-04-03T11:45:56.888Z,12.61
2023-04-03T11:48:33.463Z,12.43
2023-04-03T11:51:24.148Z,12.64
2023-04-03T11:53:53.708Z,12.43
2023-04-03T11:56:26.518Z,11.90
2023-04-03T11:59:15.305Z,12.04
2023-04-03T12:01:49.726Z,13.06
2023-04-03T12:04:22.415Z,13.30
2023-04-03T12:07:13.148Z,13.20
2023-04-03T12:09:43.702Z,13.45
2023-04-03T12:12:37.188Z,13.06
2023-04-03T12:15:23.112Z,13.20
2023-04-03T12:17:53.203Z,13.00
2023-04-03T12:20:53.278Z,12.90
2023-04-03T12:23:36.688Z,13.02
2023-04-03T12:26:59.625Z,13.33
2023-04-03T12:29:34.450Z,13.67
2023-04-03T12:33:11.733Z,13.01
2023-04-03T12:35:53.304Z,12.72
2023-04-03T12:38:57.457Z,12.54
2023-04-03T12:41:44.801Z,13.47
2023-04-03T12:44:38.774Z,13.33
2023-04-03T12:47:34.634Z,13.12
2023-04-03T12:50:17.552Z,12.97
2023-04-03T12:52:54.361Z,13.41
2023-04-03T12:55:24.386Z,14.09
2023-04-03T12:57:54.384Z,13.59
2023-04-03T13:00:34.062Z,13.77
2023-04-03T13:03:06.657Z,13.59
2023-04-03T13:05:37.142Z,13.54
2023-04-03T13:08:15.081Z,13.31
2023-04-03T13:11:00.229Z,13.55
2023-04-03T13:13:30.653Z,14.89
2023-04-03T13:15:59.951Z,15.00
2023-04-03T13:18:37.228Z,14.61
2023-04-03T13:21:17.244Z,14.13
2023-04-03T13:23:53.364Z,14.16
2023-04-03T13:26:31.358Z,14.02
2023-04-03T13:29:09.461Z,14.06
2023-04-03T13:31:41.534Z,14.45
2023-04-03T13:34:21.761Z,14.12
2023-04-03T13:37:00.505Z,13.98
2023-04-03T13:39:35.975Z,14.23
2023-04-03T13:42:31.078Z,14.57
2023-04-03T13:45:30.331Z,14.92
2023-04-03T13:48:24.230Z,14.84
2023-04-03T13:51:03.824Z,15.21
2023-04-03T13:53:35.158Z,15.14
2023-04-03T13:56:04.672Z,15.10
2023-04-03T13:58:35.629Z,15.13
2023-04-03T14:01:13.797Z,14.87
2023-04-03T14:03:48.024Z,15.31
2023-04-03T14:06:19.583Z,15.91
2023-04-03T14:08:50.423Z,15.68
2023-04-03T14:11:22.610Z,16.19
2023-04-03T14:13:52.968Z,16.30
2023-04-03T14:16:26.758Z,16.51
2023-04-03T14:18:55.934Z,16.51
2023-04-03T14:21:25.145Z,16.51
2023-04-03T14:23:54.027Z,16.69
2023-04-03T14:26:25.392Z,16.78
2023-04-03T14:28:58.646Z,16.94
2023-04-03T14:31:27.994Z,16.75
2023-04-03T14:33:57.332Z,16.79
2023-04-03T14:36:28.942Z,17.34
2023-04-03T14:38:59.482Z,17.66
2023-04-03T14:41:29.511Z,18.07
2023-04-03T14:43:59.850Z,18.22
2023-04-03T14:46:54.318Z,18.27
2023-04-03T14:49:30.663Z,18.16
2023-04-03T14:52:00.390Z,18.63
2023-04-03T14:54:31.057Z,18.21
2023-04-03T14:57:02.962Z,18.23
2023-04-03T14:59:34.320Z,17.84
2023-04-03T15:02:25.188Z,17.63
2023-04-03T15:04:59.353Z,17.80
2023-04-03T15:07:32.812Z,18.10
2023-04-03T15:10:21.975Z,18.44
2023-04-03T15:12:51.904Z,19.10
2023-04-03T15:15:22.692Z,18.95
2023-04-03T15:17:59.671Z,18.74
2023-04-03T15:20:32.227Z,18.90
2023-04-03T15:23:03.134Z,19.66
2023-04-03T15:25:34.845Z,19.73
2023-04-03T15:28:05.681Z,19.36
2023-04-03T15:30:42.115Z,19.81
2023-04-03T15:33:12.487Z,20.03
2023-04-03T15:35:42.454Z,20.39
2023-04-03T15:38:12.900Z,20.16
2023-04-03T15:40:42.568Z,20.52
2023-04-03T15:43:12.484Z,20.37
2023-04-03T15:45:42.706Z,21.14
2023-04-03T15:48:13.279Z,21.42
2023-04-03T15:50:44.724Z,21.49
2023-04-03T15:53:17.544Z,21.56
2023-04-03T15:55:50.416Z,21.55
2023-04-03T15:58:20.598Z,21.57
2023-04-03T16:00:51.297Z,21.58
2023-04-03T16:03:26.922Z,21.52
2023-04-03T16:05:59.506Z,21.94
2023-04-03T16:08:30.554Z,21.90
2023-04-03T16:11:00.133Z,22.38
2023-04-03T16:13:30.053Z,22.61
2023-04-03T16:15:59.831Z,22.59
2023-04-03T16:18:31.856Z,23.01
2023-04-03T16:21:04.273Z,23.52
2023-04-03T16:23:37.964Z,24.02
2023-04-03T16:26:08.655Z,24.34
2023-04-03T16:28:39.137Z,25.07
2023-04-03T16:31:12.380Z,25.16
2023-04-03T16:33:42.729Z,25.21
2023-04-03T16:36:14.954Z,25.60
2023-04-03T16:38:44.429Z,25.87
2023-04-03T16:41:16.018Z,26.28
2023-04-03T16:43:49.410Z,26.45
2023-04-03T16:46:19.448Z,26.76
2023-04-03T16:48:49.949Z,27.02
2023-04-03T16:51:19.721Z,27.45
2023-04-03T16:53:49.359Z,27.68
2023-04-03T16:56:20.158Z,27.82
2023-04-03T16:58:50.357Z,27.85
2023-04-03T17:01:22.774Z,28.10
2023-04-03T17:03:52.793Z,28.32
2023-04-03T17:06:24.712Z,28.46
2023-04-03T17:08:54.612Z,28.26
2023-04-03T17:11:24.100Z,28.73
2023-04-03T17:13:53.505Z,28.79
2023-04-03T17:16:23.285Z,28.95
2023-04-03T17:18:54.333Z,29.18
2023-04-03T17:21:24.315Z,29.05
2023-04-03T17:24:00.913Z,28.97
2023-04-03T17:26:31.447Z,29.20
2023-04-03T17:29:01.386Z,29.28
2023-04-03T17:31:31.602Z,29.56
2023-04-03T17:34:03.758Z,29.38
2023-04-03T17:36:35.829Z,29.58
2023-04-03T17:39:06.984Z,29.65
2023-04-03T17:41:37.467Z,30.05
2023-04-03T17:44:08.598Z,29.94
2023-04-03T17:46:38.843Z,30.00
2023-04-03T17:49:10.485Z,30.32
2023-04-03T17:51:40.266Z,30.39
2023-04-03T17:54:09.561Z,30.68
2023-04-03T17:56:39.265Z,30.88
2023-04-03T17:59:08.506Z,30.83
2023-04-03T18:01:38.652Z,30.85
2023-04-03T18:04:08.757Z,31.01
2023-04-03T18:06:46.262Z,30.89
2023-04-03T18:09:26.772Z,30.90
2023-04-03T18:11:57.776Z,31.03
2023-04-03T18:14:28.723Z,31.21
2023-04-03T18:16:59.529Z,31.18
2023-04-03T18:19:30.172Z,31.27
2023-04-03T18:22:07.320Z,31.51
2023-04-03T18:24:37.412Z,31.76
2023-04-03T18:27:16.671Z,31.89
2023-04-03T18:29:49.969Z,32.03
2023-04-03T18:32:24.232Z,32.15
2023-04-03T18:34:54.267Z,32.36
2023-04-03T18:37:24.896Z,32.34
2023-04-03T18:39:54.187Z,32.45
2023-04-03T18:42:26.634Z,32.54
2023-04-03T18:45:01.029Z,32.62
2023-04-03T18:47:32.678Z,32.77
2023-04-03T18:50:03.803Z,32.81
2023-04-03T18:52:33.205Z,32.77
2023-04-03T18:55:02.295Z,33.15
2023-04-03T18:57:31.846Z,33.23
2023-04-03T19:00:02.033Z,33.30
2023-04-03T19:02:32.287Z,33.56
2023-04-03T19:05:02.589Z,33.59
2023-04-03T19:07:34.102Z,33.66
2023-04-03T19:10:06.728Z,33.93
2023-04-03T19:12:38.561Z,33.97
2023-04-03T19:15:09.965Z,34.25
2023-04-03T19:17:40.224Z,34.43
2023-04-03T19:20:12.251Z,34.89
2023-04-03T19:22:44.548Z,35.01
2023-04-03T19:25:15.913Z,35.31
2023-04-03T19:27:45.811Z,35.31
2023-04-03T19:30:15.628Z,35.47
2023-04-03T19:32:45.602Z,35.84
2023-04-03T19:35:14.584Z,35.82
2023-04-03T19:37:43.904Z,36.03
2023-04-03T19:40:13.646Z,36.31
2023-04-03T19:42:43.464Z,36.31
2023-04-03T19:45:15.276Z,36.46
2023-04-03T19:47:45.474Z,36.68
2023-04-03T19:50:14.785Z,36.83
2023-04-03T19:52:43.835Z,37.03
2023-04-03T19:55:13.407Z,37.24
2023-04-03T19:57:42.413Z,37.38
2023-04-03T20:00:12.010Z,37.23
2023-04-03T20:02:41.220Z,37.76
2023-04-03T20:05:11.976Z,37.76
2023-04-03T20:07:42.216Z,37.90
2023-04-03T20:10:12.889Z,38.07
2023-04-03T20:12:43.411Z,38.37
2023-04-03T20:15:12.923Z,38.24
2023-04-03T20:17:42.561Z,38.57
2023-04-03T20:20:13.352Z,38.79
2023-04-03T20:22:43.203Z,38.90
2023-04-03T20:25:17.423Z,38.92
2023-04-03T20:27:55.024Z,39.24
2023-04-03T20:30:25.287Z,39.21
2023-04-03T20:32:55.115Z,38.91
2023-04-03T20:35:25.788Z,39.23
2023-04-03T20:37:56.495Z,39.79
2023-04-03T20:40:28.526Z,40.25
2023-04-03T20:42:59.374Z,40.39
2023-04-03T20:45:32.797Z,41.10
2023-04-03T20:48:05.050Z,41.51
2023-04-03T20:50:35.020Z,41.49
2023-04-03T20:53:04.101Z,42.09
2023-04-03T20:55:34.419Z,42.62
2023-04-03T20:58:04.895Z,42.99
2023-04-03T21:00:34.340Z,43.43
2023-04-03T21:03:03.720Z,43.47
2023-04-03T21:05:35.226Z,44.06
2023-04-03T21:08:42.813Z,44.14
2023-04-03T21:11:49.136Z,44.72
2023-04-03T21:14:55.506Z,44.93
2023-04-03T21:17:24.270Z,45.37
2023-04-03T21:19:53.628Z,45.34
2023-04-03T21:22:23.115Z,46.00
2023-04-03T21:24:51.989Z,46.29
2023-04-03T21:27:21.240Z,46.44
2023-04-03T21:29:50.793Z,47.02
2023-04-03T21:32:19.689Z,46.75
2023-04-03T21:34:48.948Z,46.82
2023-04-03T21:37:18.370Z,47.14
2023-04-03T21:39:47.800Z,47.06
2023-04-03T21:42:17.034Z,46.84
2023-04-03T21:44:46.459Z,46.75
2023-04-03T21:47:16.784Z,46.82
2023-04-03T21:49:45.745Z,46.75
2023-04-03T21:52:14.583Z,46.70
2023-04-03T21:54:43.951Z,46.84
2023-04-03T21:57:12.616Z,46.66
2023-04-03T21:59:42.715Z,47.16
2023-04-03T22:02:12.105Z,47.31
2023-04-03T22:04:41.881Z,47.88
2023-04-03T22:07:11.398Z,47.96
2023-04-03T22:09:41.651Z,48.11
2023-04-03T22:12:13.184Z,48.21
2023-04-03T22:14:42.614Z,48.44
2023-04-03T22:17:11.910Z,48.35
2023-04-03T22:19:40.974Z,48.30
2023-04-03T22:22:10.056Z,48.28
2023-04-03T22:24:38.970Z,48.05
2023-04-03T22:27:08.304Z,48.27
2023-04-03T22:29:37.577Z,48.56
2023-04-03T22:32:07.440Z,48.55
2023-04-03T22:34:38.653Z,48.79
2023-04-03T22:37:08.264Z,48.85
2023-04-03T22:39:37.777Z,49.29
2023-04-03T22:42:08.173Z,48.91
2023-04-03T22:44:37.432Z,49.22
2023-04-03T22:47:07.299Z,49.47
2023-04-03T22:49:36.082Z,49.10
2023-04-03T22:52:05.899Z,49.10
2023-04-03T22:54:34.775Z,49.34
2023-04-03T22:57:04.356Z,49.53
2023-04-03T22:59:33.473Z,49.42
2023-04-03T23:02:02.631Z,49.96
2023-04-03T23:04:31.754Z,50.04
2023-04-03T23:07:01.321Z,50.18
2023-04-03T23:09:30.363Z,50.03
2023-04-03T23:11:59.979Z,50.22
2023-04-03T23:14:29.103Z,50.39
2023-04-03T23:17:05.923Z,50.57
2023-04-03T23:19:35.773Z,50.55
2023-04-03T23:22:05.029Z,50.46
2023-04-03T23:24:34.180Z,50.50
2023-04-03T23:27:03.619Z,50.69
2023-04-03T23:29:33.616Z,50.58
2023-04-03T23:32:03.136Z,51.16
2023-04-03T23:34:31.782Z,51.37
2023-04-03T23:37:00.905Z,51.39
2023-04-03T23:39:29.701Z,51.44
2023-04-03T23:41:59.250Z,51.35
2023-04-03T23:44:28.309Z,51.59
2023-04-03T23:46:58.451Z,51.58
2023-04-03T23:49:28.024Z,51.51
2023-04-03T23:51:57.928Z,51.70
2023-04-03T23:54:27.278Z,51.58
2023-04-03T23:56:56.949Z,51.51
2023-04-03T23:59:26.585Z,51.72
